createdAt,value
2022-09-26T00:01:36.479Z,5.53
2022-09-26T00:04:10.163Z,5.60
2022-09-26T00:06:40.096Z,5.70
2022-09-26T00:09:09.015Z,5.40
2022-09-26T00:11:37.231Z,5.00
2022-09-26T00:14:08.769Z,5.18
2022-09-26T00:16:35.912Z,5.53
2022-09-26T00:19:07.239Z,5.93
2022-09-26T00:21:35.591Z,5.45
2022-09-26T00:24:03.814Z,5.18
2022-09-26T00:26:33.961Z,5.90
2022-09-26T00:29:08.133Z,6.68
2022-09-26T00:31:45.210Z,6.13
2022-09-26T00:34:15.252Z,6.00
2022-09-26T00:36:44.366Z,5.97
2022-09-26T00:39:15.298Z,5.60
2022-09-26T00:41:45.704Z,6.15
2022-09-26T00:44:41.636Z,5.15
2022-09-26T00:47:20.830Z,5.15
2022-09-26T00:49:51.498Z,5.35
2022-09-26T00:52:31.237Z,5.22
2022-09-26T00:55:02.489Z,5.63
2022-09-26T00:57:35.070Z,4.95
2022-09-26T01:02:35.110Z,4.95
2022-09-26T01:05:06.710Z,5.10
2022-09-26T01:07:36.371Z,4.93
2022-09-26T01:10:07.320Z,4.60
2022-09-26T01:12:37.611Z,4.80
2022-09-26T01:15:08.961Z,4.80
2022-09-26T01:17:43.425Z,4.50
2022-09-26T01:20:35.010Z,4.45
2022-09-26T01:23:11.857Z,4.38
2022-09-26T01:25:54.933Z,4.50
2022-09-26T01:28:34.055Z,4.20
2022-09-26T01:31:16.979Z,5.78
2022-09-26T01:34:33.314Z,4.80
2022-09-26T01:37:24.005Z,4.93
2022-09-26T01:40:10.387Z,4.45
2022-09-26T01:42:59.553Z,5.20
2022-09-26T01:45:45.219Z,4.88
2022-09-26T01:48:19.507Z,5.40
2022-09-26T01:50:52.255Z,5.68
2022-09-26T01:53:27.716Z,4.30
2022-09-26T01:56:06.540Z,5.50
2022-09-26T01:59:03.493Z,5.00
2022-09-26T02:01:38.235Z,4.60
2022-09-26T02:04:25.554Z,4.63
2022-09-26T02:07:11.768Z,3.97
2022-09-26T02:09:59.357Z,4.68
2022-09-26T02:12:37.022Z,3.95
2022-09-26T02:15:11.267Z,4.70
2022-09-26T02:17:42.500Z,4.35
2022-09-26T02:20:32.202Z,3.70
2022-09-26T02:23:04.782Z,2.80
2022-09-26T02:28:00.366Z,3.58
2022-09-26T02:30:29.620Z,3.20
2022-09-26T02:32:57.614Z,2.80
2022-09-26T02:35:43.781Z,2.42
2022-09-26T02:38:12.766Z,2.42
2022-09-26T02:41:00.264Z,2.72
2022-09-26T02:43:58.086Z,2.30
2022-09-26T02:46:43.670Z,2.47
2022-09-26T02:49:21.632Z,2.53
2022-09-26T02:52:18.450Z,2.30
2022-09-26T02:55:10.411Z,2.50
2022-09-26T02:57:52.488Z,2.25
2022-09-26T03:00:25.004Z,2.20
2022-09-26T03:03:16.875Z,3.40
2022-09-26T03:05:51.566Z,2.33
2022-09-26T03:08:24.157Z,3.05
2022-09-26T03:10:53.130Z,2.97
2022-09-26T03:13:21.586Z,2.83
2022-09-26T03:15:53.634Z,3.30
2022-09-26T03:18:29.564Z,3.58
2022-09-26T03:23:26.882Z,4.68
2022-09-26T03:26:13.846Z,4.20
2022-09-26T03:28:56.197Z,4.85
2022-09-26T03:31:28.340Z,4.38
2022-09-26T03:34:00.841Z,4.43
2022-09-26T03:36:28.964Z,5.10
2022-09-26T03:38:56.977Z,5.30
2022-09-26T03:41:42.163Z,4.35
2022-09-26T03:44:26.150Z,4.68
2022-09-26T03:47:14.603Z,4.30
2022-09-26T03:49:44.953Z,4.50
2022-09-26T03:52:13.068Z,4.40
2022-09-26T03:54:41.845Z,3.88
2022-09-26T03:57:16.057Z,5.10
2022-09-26T03:59:49.837Z,4.03
2022-09-26T04:02:21.007Z,4.90
2022-09-26T04:04:55.875Z,4.10
2022-09-26T04:07:23.986Z,4.32
2022-09-26T04:09:50.835Z,4.40
2022-09-26T04:12:18.044Z,3.17
2022-09-26T04:14:45.089Z,3.90
2022-09-26T04:17:12.757Z,4.32
2022-09-26T04:19:43.141Z,3.75
2022-09-26T04:22:10.085Z,3.30
2022-09-26T04:24:39.849Z,4.03
2022-09-26T04:27:08.579Z,3.60
2022-09-26T04:29:36.926Z,3.58
2022-09-26T04:32:13.168Z,4.38
2022-09-26T04:35:13.114Z,5.07
2022-09-26T04:37:41.289Z,3.95
2022-09-26T04:40:11.266Z,4.68
2022-09-26T04:42:45.389Z,3.38
2022-09-26T04:45:12.297Z,4.05
2022-09-26T04:47:40.164Z,5.05
2022-09-26T04:50:26.797Z,4.28
2022-09-26T04:53:13.704Z,4.97
2022-09-26T04:55:57.563Z,4.70
2022-09-26T04:58:25.526Z,4.30
2022-09-26T05:00:53.263Z,5.38
2022-09-26T05:03:37.848Z,4.43
2022-09-26T05:06:08.927Z,4.72
2022-09-26T05:08:43.181Z,4.75
2022-09-26T05:11:15.834Z,5.00
2022-09-26T05:13:49.137Z,4.65
2022-09-26T05:16:21.625Z,4.18
2022-09-26T05:18:52.817Z,3.50
2022-09-26T05:21:20.329Z,4.35
2022-09-26T05:24:07.863Z,3.60
2022-09-26T05:26:47.046Z,2.58
2022-09-26T05:29:14.987Z,3.85
2022-09-26T05:32:02.720Z,3.42
2022-09-26T05:34:35.092Z,3.00
2022-09-26T05:37:04.270Z,3.03
2022-09-26T05:40:00.634Z,3.08
2022-09-26T05:42:29.656Z,3.38
2022-09-26T05:44:58.558Z,2.83
2022-09-26T05:47:28.476Z,3.65
2022-09-26T05:49:56.413Z,3.75
2022-09-26T05:52:24.889Z,2.65
2022-09-26T05:54:54.654Z,2.40
2022-09-26T05:58:00.211Z,2.67
2022-09-26T06:00:50.548Z,2.97
2022-09-26T06:03:19.991Z,3.03
2022-09-26T06:06:16.923Z,2.85
2022-09-26T06:08:45.492Z,3.17
2022-09-26T06:11:31.009Z,2.92
2022-09-26T06:14:00.765Z,2.90
2022-09-26T06:16:28.991Z,3.00
2022-09-26T06:19:01.254Z,3.00
2022-09-26T06:21:28.569Z,3.60
2022-09-26T06:24:02.994Z,3.38
2022-09-26T06:26:31.512Z,3.25
2022-09-26T06:29:00.922Z,3.20
2022-09-26T06:31:33.652Z,2.42
2022-09-26T06:34:09.296Z,3.17
2022-09-26T06:36:50.234Z,3.50
2022-09-26T06:39:17.846Z,3.80
2022-09-26T06:41:46.562Z,3.33
2022-09-26T06:44:31.037Z,3.50
2022-09-26T06:47:30.357Z,3.65
2022-09-26T06:50:16.682Z,3.80
2022-09-26T06:52:51.264Z,3.65
2022-09-26T06:55:18.482Z,4.82
2022-09-26T06:57:45.979Z,3.67
2022-09-26T07:00:15.987Z,4.35
2022-09-26T07:03:09.273Z,3.63
2022-09-26T07:06:03.347Z,3.45
2022-09-26T07:08:57.367Z,4.32
2022-09-26T07:11:56.334Z,3.10
2022-09-26T07:14:07.502Z,4.13
2022-09-26T07:16:34.996Z,2.95
2022-09-26T07:19:22.647Z,3.53
2022-09-26T07:21:57.805Z,2.90
2022-09-26T07:24:42.723Z,3.20
2022-09-26T07:27:10.465Z,3.28
2022-09-26T07:29:39.371Z,3.85
2022-09-26T07:32:06.263Z,3.17
2022-09-26T07:34:53.270Z,2.85
2022-09-26T07:37:21.375Z,3.30
2022-09-26T07:39:54.115Z,2.80
2022-09-26T07:42:22.441Z,3.42
2022-09-26T07:48:01.659Z,3.40
2022-09-26T07:51:05.738Z,3.25
2022-09-26T07:53:46.156Z,3.40
2022-09-26T07:56:34.439Z,3.15
2022-09-26T07:59:21.489Z,2.90
2022-09-26T08:02:26.425Z,2.70
2022-09-26T08:05:00.769Z,1.98
2022-09-26T08:07:29.924Z,2.65
2022-09-26T08:10:06.109Z,2.50
2022-09-26T08:13:02.120Z,2.60
2022-09-26T08:15:55.462Z,2.72
2022-09-26T08:18:28.696Z,2.28
2022-09-26T08:20:56.787Z,2.13
2022-09-26T08:23:28.528Z,2.47
2022-09-26T08:26:33.660Z,2.60
2022-09-26T08:29:12.756Z,2.50
2022-09-26T08:31:43.027Z,2.28
2022-09-26T08:34:09.968Z,2.38
2022-09-26T08:36:44.045Z,2.38
2022-09-26T08:39:16.555Z,2.60
2022-09-26T08:42:28.677Z,2.47
2022-09-26T08:45:51.151Z,2.55
2022-09-26T08:48:45.154Z,2.45
2022-09-26T08:51:28.851Z,2.22
2022-09-26T08:54:15.392Z,2.72
2022-09-26T08:56:50.030Z,2.45
2022-09-26T08:59:31.518Z,2.40
2022-09-26T09:02:05.163Z,2.60
2022-09-26T09:05:06.173Z,2.70
2022-09-26T09:07:38.756Z,2.22
2022-09-26T09:10:14.415Z,2.50
2022-09-26T09:13:45.659Z,2.72
2022-09-26T09:17:10.711Z,2.25
2022-09-26T09:20:08.969Z,2.28
2022-09-26T09:23:02.633Z,2.85
2022-09-26T09:25:51.878Z,2.90
2022-09-26T09:28:47.850Z,2.45
2022-09-26T09:31:17.053Z,3.53
2022-09-26T09:34:09.344Z,3.17
2022-09-26T09:36:49.886Z,2.42
2022-09-26T09:39:35.832Z,3.00
2022-09-26T09:42:34.635Z,3.08
2022-09-26T09:45:19.656Z,3.20
2022-09-26T09:47:48.141Z,3.15
2022-09-26T09:50:39.173Z,3.67
2022-09-26T09:53:20.676Z,3.03
2022-09-26T09:56:07.490Z,2.30
2022-09-26T09:58:46.675Z,1.83
2022-09-26T10:01:37.512Z,2.00
2022-09-26T10:04:30.632Z,2.80
2022-09-26T10:07:04.224Z,3.13
2022-09-26T10:09:40.717Z,3.08
2022-09-26T10:12:31.228Z,3.13
2022-09-26T10:15:24.943Z,2.75
2022-09-26T10:18:26.688Z,2.53
2022-09-26T10:21:17.865Z,2.40
2022-09-26T10:23:50.603Z,3.00
2022-09-26T10:26:39.595Z,2.28
2022-09-26T10:29:35.838Z,2.42
2022-09-26T10:32:03.620Z,2.30
2022-09-26T10:34:35.337Z,2.42
2022-09-26T10:37:29.322Z,2.35
2022-09-26T10:40:45.822Z,2.65
2022-09-26T10:43:30.391Z,2.80
2022-09-26T10:46:10.289Z,2.78
2022-09-26T10:52:20.618Z,3.20
2022-09-26T10:54:59.015Z,3.05
2022-09-26T10:57:33.756Z,3.08
2022-09-26T11:00:06.728Z,3.47
2022-09-26T11:02:35.061Z,3.45
2022-09-26T11:05:24.168Z,3.10
2022-09-26T11:07:57.256Z,3.30
2022-09-26T11:10:42.038Z,3.10
2022-09-26T11:14:03.571Z,3.60
2022-09-26T11:16:48.431Z,2.88
2022-09-26T11:19:24.996Z,2.97
2022-09-26T11:22:16.551Z,2.08
2022-09-26T11:24:59.499Z,2.72
2022-09-26T11:27:43.978Z,2.70
2022-09-26T11:30:20.918Z,2.55
2022-09-26T11:33:00.463Z,2.40
2022-09-26T11:36:03.600Z,3.10
2022-09-26T11:39:05.311Z,3.05
2022-09-26T11:41:46.109Z,2.20
2022-09-26T11:44:29.306Z,3.08
2022-09-26T11:47:40.426Z,2.38
2022-09-26T11:50:40.216Z,2.05
2022-09-26T11:53:40.697Z,2.90
2022-09-26T11:56:43.634Z,2.40
2022-09-26T11:59:49.429Z,2.63
2022-09-26T12:02:35.630Z,2.20
2022-09-26T12:05:24.657Z,2.25
2022-09-26T12:08:57.755Z,2.35
2022-09-26T12:11:40.155Z,2.20
2022-09-26T12:14:09.489Z,2.47
2022-09-26T12:16:56.307Z,2.20
2022-09-26T12:19:32.401Z,1.90
2022-09-26T12:22:29.404Z,1.80
2022-09-26T12:25:00.318Z,1.85
2022-09-26T12:27:44.410Z,1.85
2022-09-26T12:30:19.759Z,1.88
2022-09-26T12:33:05.938Z,1.70
2022-09-26T12:35:50.231Z,1.92
2022-09-26T12:38:28.982Z,1.92
2022-09-26T12:41:14.323Z,1.65
2022-09-26T12:43:59.585Z,1.50
2022-09-26T12:47:02.189Z,1.60
2022-09-26T12:49:38.837Z,1.75
2022-09-26T12:52:55.741Z,1.50
2022-09-26T12:55:34.900Z,1.80
2022-09-26T12:58:29.680Z,1.40
2022-09-26T13:01:09.323Z,1.38
2022-09-26T13:03:46.915Z,1.30
2022-09-26T13:06:49.048Z,1.70
2022-09-26T13:09:32.611Z,1.70
2022-09-26T13:12:21.615Z,1.63
2022-09-26T13:14:55.175Z,1.73
2022-09-26T13:17:34.457Z,1.90
2022-09-26T13:20:41.219Z,1.95
2022-09-26T13:23:34.943Z,2.00
2022-09-26T13:26:17.938Z,2.50
2022-09-26T13:29:16.328Z,1.98
2022-09-26T13:32:01.620Z,1.90
2022-09-26T13:34:38.935Z,2.00
2022-09-26T13:37:28.710Z,1.80
2022-09-26T13:40:10.764Z,1.55
2022-09-26T13:43:25.768Z,2.00
2022-09-26T13:46:01.009Z,1.70
2022-09-26T13:49:00.949Z,1.52
2022-09-26T13:51:59.725Z,1.38
2022-09-26T13:54:41.094Z,1.75
2022-09-26T13:57:32.493Z,1.95
2022-09-26T14:00:40.444Z,1.90
2022-09-26T14:03:10.058Z,2.20
2022-09-26T14:05:44.372Z,2.58
2022-09-26T14:08:51.602Z,2.15
2022-09-26T14:11:43.727Z,2.47
2022-09-26T14:14:20.756Z,2.70
2022-09-26T14:17:05.638Z,2.10
2022-09-26T14:19:49.784Z,2.47
2022-09-26T14:22:23.312Z,2.42
2022-09-26T14:24:53.850Z,2.10
2022-09-26T14:27:39.530Z,2.15
2022-09-26T14:30:29.360Z,2.15
2022-09-26T14:33:10.101Z,2.95
2022-09-26T14:35:39.992Z,2.40
2022-09-26T14:38:21.118Z,2.35
2022-09-26T14:40:59.680Z,2.20
2022-09-26T14:43:30.262Z,2.15
2022-09-26T14:46:13.916Z,2.30
2022-09-26T14:48:42.694Z,1.60
2022-09-26T14:51:15.662Z,1.83
2022-09-26T14:53:54.601Z,2.28
2022-09-26T14:56:38.080Z,2.88
2022-09-26T14:59:24.581Z,2.50
2022-09-26T15:01:53.278Z,1.80
2022-09-26T15:04:26.006Z,2.22
2022-09-26T15:07:02.721Z,2.10
2022-09-26T15:09:39.737Z,2.08
2022-09-26T15:12:21.754Z,1.80
2022-09-26T15:15:21.315Z,1.33
2022-09-26T15:17:55.883Z,1.80
2022-09-26T15:20:25.635Z,1.67
2022-09-26T15:22:57.471Z,1.80
2022-09-26T15:25:31.019Z,2.33
2022-09-26T15:27:59.840Z,2.15
2022-09-26T15:30:34.672Z,1.77
2022-09-26T15:33:04.831Z,1.60
2022-09-26T15:35:34.023Z,1.60
2022-09-26T15:38:03.689Z,1.50
2022-09-26T15:40:31.964Z,1.70
2022-09-26T15:43:22.389Z,2.00
2022-09-26T15:45:58.812Z,1.60
2022-09-26T15:48:30.158Z,1.70
2022-09-26T15:51:14.923Z,1.65
2022-09-26T15:53:55.725Z,1.67
2022-09-26T15:56:26.691Z,1.70
2022-09-26T15:59:17.525Z,1.92
2022-09-26T16:01:49.628Z,1.83
2022-09-26T16:04:32.234Z,2.60
2022-09-26T16:07:16.149Z,2.03
2022-09-26T16:09:47.139Z,2.20
2022-09-26T16:12:20.840Z,2.47
2022-09-26T16:14:59.906Z,3.20
2022-09-26T16:17:36.148Z,2.88
2022-09-26T16:20:19.819Z,3.10
2022-09-26T16:22:52.822Z,3.20
2022-09-26T16:25:24.683Z,3.72
2022-09-26T16:28:10.128Z,3.80
2022-09-26T16:30:43.596Z,3.95
2022-09-26T16:33:31.234Z,4.13
2022-09-26T16:36:17.251Z,6.53
2022-09-26T16:38:58.611Z,4.72
2022-09-26T16:41:59.554Z,4.82
2022-09-26T16:44:35.411Z,4.97
2022-09-26T16:47:07.511Z,5.82
2022-09-26T16:49:42.909Z,5.03
2022-09-26T16:52:29.484Z,5.55
2022-09-26T16:55:00.391Z,6.30
2022-09-26T16:57:54.476Z,5.97
2022-09-26T17:00:42.900Z,6.22
2022-09-26T17:03:24.590Z,5.82
2022-09-26T17:05:55.759Z,6.63
2022-09-26T17:08:23.485Z,6.97
2022-09-26T17:10:52.848Z,8.32
2022-09-26T17:13:25.031Z,8.00
2022-09-26T17:16:01.154Z,6.00
2022-09-26T17:18:32.395Z,5.97
2022-09-26T17:21:02.050Z,5.30
2022-09-26T17:23:41.604Z,2.95
2022-09-26T17:26:18.201Z,2.80
2022-09-26T17:28:45.546Z,2.70
2022-09-26T17:31:19.879Z,3.13
2022-09-26T17:33:52.547Z,3.47
2022-09-26T17:36:29.341Z,3.88
2022-09-26T17:39:00.238Z,3.50
2022-09-26T17:41:29.998Z,5.78
2022-09-26T17:44:00.246Z,5.32
2022-09-26T17:46:28.923Z,6.53
2022-09-26T17:48:56.498Z,5.13
2022-09-26T17:51:25.339Z,5.40
2022-09-26T17:53:57.519Z,6.07
2022-09-26T17:56:26.354Z,5.88
2022-09-26T17:58:55.679Z,12.50
2022-09-26T18:01:26.875Z,7.55
2022-09-26T18:04:00.046Z,13.60
2022-09-26T18:06:31.310Z,7.32
2022-09-26T18:09:05.607Z,9.30
2022-09-26T18:11:39.689Z,10.90
2022-09-26T18:14:08.199Z,7.38
2022-09-26T18:16:36.355Z,4.32
2022-09-26T18:19:07.497Z,5.10
2022-09-26T18:21:36.184Z,4.60
2022-09-26T18:24:06.846Z,7.32
2022-09-26T18:26:50.759Z,4.32
2022-09-26T18:29:32.029Z,4.88
2022-09-26T18:32:01.031Z,4.93
2022-09-26T18:34:27.929Z,4.80
2022-09-26T18:37:00.338Z,5.43
2022-09-26T18:39:28.490Z,5.47
2022-09-26T18:42:09.227Z,5.07
2022-09-26T18:44:36.857Z,5.15
2022-09-26T18:47:12.441Z,5.93
2022-09-26T18:49:39.401Z,5.05
2022-09-26T18:52:15.287Z,4.15
2022-09-26T18:54:45.187Z,4.80
2022-09-26T18:57:32.173Z,4.47
2022-09-26T19:00:02.849Z,4.00
2022-09-26T19:02:36.649Z,3.65
2022-09-26T19:05:07.318Z,3.40
2022-09-26T19:07:35.636Z,3.10
2022-09-26T19:10:02.558Z,3.47
2022-09-26T19:12:31.568Z,3.40
2022-09-26T19:14:58.447Z,3.65
2022-09-26T19:17:26.363Z,3.38
2022-09-26T19:19:53.176Z,2.95
2022-09-26T19:22:21.259Z,3.00
2022-09-26T19:24:53.516Z,3.13
2022-09-26T19:27:44.554Z,4.85
2022-09-26T19:30:18.552Z,2.78
2022-09-26T19:32:53.674Z,2.67
2022-09-26T19:35:23.603Z,4.63
2022-09-26T19:37:51.193Z,4.82
2022-09-26T19:40:20.183Z,3.78
2022-09-26T19:42:48.156Z,3.03
2022-09-26T19:45:16.419Z,2.90
2022-09-26T19:47:50.105Z,2.80
2022-09-26T19:50:22.893Z,3.03
2022-09-26T19:52:52.313Z,3.72
2022-09-26T19:55:27.578Z,3.28
2022-09-26T19:57:57.198Z,7.32
2022-09-26T20:00:24.358Z,3.72
2022-09-26T20:02:52.003Z,3.45
2022-09-26T20:05:22.021Z,15.10
2022-09-26T20:07:50.469Z,4.53
2022-09-26T20:10:20.258Z,3.30
2022-09-26T20:12:49.446Z,5.05
2022-09-26T20:15:20.378Z,4.00
2022-09-26T20:17:49.304Z,6.20
2022-09-26T20:20:25.135Z,10.25
2022-09-26T20:22:53.820Z,3.83
2022-09-26T20:25:27.095Z,3.80
2022-09-26T20:27:56.353Z,3.45
2022-09-26T20:30:44.569Z,4.35
2022-09-26T20:33:13.523Z,3.30
2022-09-26T20:35:44.758Z,5.03
2022-09-26T20:38:36.342Z,3.50
2022-09-26T20:41:13.445Z,3.10
2022-09-26T20:43:43.362Z,2.65
2022-09-26T20:46:12.467Z,3.70
2022-09-26T20:48:42.961Z,2.60
2022-09-26T20:51:29.428Z,2.42
2022-09-26T20:54:00.728Z,2.50
2022-09-26T20:56:28.953Z,1.15
2022-09-26T20:58:55.959Z,2.80
2022-09-26T21:01:27.865Z,2.60
2022-09-26T21:03:55.674Z,2.70
2022-09-26T21:06:26.667Z,1.67
2022-09-26T21:08:53.640Z,1.98
2022-09-26T21:11:21.900Z,2.05
2022-09-26T21:13:49.077Z,2.80
2022-09-26T21:16:21.319Z,1.67
2022-09-26T21:18:51.366Z,4.22
2022-09-26T21:21:30.296Z,2.03
2022-09-26T21:24:25.391Z,2.00
2022-09-26T21:26:52.516Z,1.60
2022-09-26T21:29:19.345Z,2.10
2022-09-26T21:31:50.221Z,1.52
2022-09-26T21:34:24.600Z,1.80
2022-09-26T21:36:54.416Z,1.95
2022-09-26T21:39:21.725Z,2.08
2022-09-26T21:41:51.950Z,2.70
2022-09-26T21:44:41.452Z,1.92
2022-09-26T21:47:08.506Z,2.70
2022-09-26T21:49:35.365Z,2.17
2022-09-26T21:52:28.355Z,2.65
2022-09-26T21:54:58.898Z,2.53
2022-09-26T21:57:33.808Z,2.53
2022-09-26T22:00:06.705Z,2.38
2022-09-26T22:02:41.883Z,2.67
2022-09-26T22:05:11.822Z,2.53
2022-09-26T22:07:39.688Z,2.55
2022-09-26T22:10:07.256Z,2.72
2022-09-26T22:12:36.171Z,3.10
2022-09-26T22:15:03.233Z,3.03
2022-09-26T22:17:33.538Z,3.20
2022-09-26T22:20:00.405Z,4.72
2022-09-26T22:22:29.413Z,4.15
2022-09-26T22:25:02.630Z,3.63
2022-09-26T22:27:36.176Z,3.55
2022-09-26T22:30:04.852Z,3.63
2022-09-26T22:32:32.778Z,3.50
2022-09-26T22:35:02.802Z,4.18
2022-09-26T22:37:30.679Z,3.90
2022-09-26T22:39:58.701Z,3.22
2022-09-26T22:42:26.721Z,3.13
2022-09-26T22:44:54.590Z,3.30
2022-09-26T22:47:22.514Z,2.67
2022-09-26T22:49:49.961Z,2.70
2022-09-26T22:52:18.787Z,2.42
2022-09-26T22:54:45.665Z,2.80
2022-09-26T22:57:13.451Z,3.15
2022-09-26T22:59:40.322Z,2.72
2022-09-26T23:02:07.359Z,3.17
2022-09-26T23:04:47.151Z,2.40
2022-09-26T23:07:18.345Z,2.10
2022-09-26T23:09:46.246Z,2.28
2022-09-26T23:12:13.577Z,2.30
2022-09-26T23:14:41.630Z,2.35
2022-09-26T23:17:11.669Z,1.90
2022-09-26T23:19:38.832Z,2.35
2022-09-26T23:22:06.822Z,2.35
2022-09-26T23:24:34.836Z,1.92
2022-09-26T23:27:03.126Z,2.78
2022-09-26T23:29:29.944Z,1.70
2022-09-26T23:31:57.977Z,1.73
2022-09-26T23:34:25.990Z,2.00
2022-09-26T23:36:53.837Z,1.85
2022-09-26T23:39:21.213Z,2.47
2022-09-26T23:41:48.117Z,1.88
2022-09-26T23:44:16.813Z,2.10
2022-09-26T23:46:44.016Z,2.10
2022-09-26T23:49:11.848Z,2.08
2022-09-26T23:51:39.729Z,1.60
2022-09-26T23:54:07.006Z,1.90
2022-09-26T23:56:36.222Z,1.60
2022-09-26T23:59:04.100Z,1.63
